Bee Spring, Kentucky
Current Conditions -  °F | °C
As of 5:53 AM on Monday 24 Nov 2014 (Local Time) from KBWG Reporting Station
Broken Clouds Broken Clouds  
Wind Chill: 62°   Ceiling: 7000
Heat Index: 62°   Visibility: 10mi
Dew Point: 51°   Wind: 22mph
Humidity: 67%   Direction: 210°SSW
Pressure: 29.45"   Gusts: 31mph
Location:  37.29°N, 86.28°W
Report Text: KBWG 241153Z AUTO 21019G27KT 10SM FEW038 SCT050 BKN070 17/11 A2945 RMK AO2 PK WND 21031/1058 SLP970 70044 T01670106 10172 20161 53012
Loading
Personal Weather Stations






























Interactive Weather Map New forecast layout! Learn more

10-Day Weather Forecast

Advertisements
Track Severe Weather on mobile